createdAt,value
2019-01-28T00:01:20.325Z,100975.02
2019-01-28T00:03:46.535Z,100979.02
2019-01-28T00:06:12.716Z,100968.86
2019-01-28T00:08:38.850Z,100972.67
2019-01-28T00:11:04.736Z,100971.02
2019-01-28T00:13:30.868Z,100964.20
2019-01-28T00:15:56.882Z,100971.81
2019-01-28T00:18:23.018Z,100961.28
2019-01-28T00:20:48.921Z,100973.94
2019-01-28T00:23:14.957Z,100969.94
2019-01-28T00:25:40.968Z,100967.72
2019-01-28T00:28:07.072Z,100972.78
2019-01-28T00:30:33.234Z,100975.45
2019-01-28T00:32:59.268Z,100974.36
2019-01-28T00:35:27.423Z,100973.66
2019-01-28T00:37:53.615Z,100978.95
2019-01-28T00:40:19.528Z,100970.64
2019-01-28T00:42:45.627Z,100970.34
2019-01-28T00:45:12.239Z,100973.67
2019-01-28T00:47:38.234Z,100983.14
2019-01-28T00:50:09.220Z,100982.74
2019-01-28T00:52:35.162Z,100977.66
2019-01-28T00:55:01.281Z,100988.25
2019-01-28T00:57:28.269Z,100980.66
2019-01-28T00:59:54.168Z,100967.60
2019-01-28T01:02:20.311Z,100968.39
2019-01-28T01:04:46.562Z,100956.99
2019-01-28T01:07:12.711Z,100968.08
2019-01-28T01:09:38.620Z,100953.86
2019-01-28T01:12:04.838Z,100963.20
2019-01-28T01:14:32.009Z,100955.92
2019-01-28T01:16:58.041Z,100956.67
2019-01-28T01:19:23.964Z,100960.89
2019-01-28T01:21:49.866Z,100961.65
2019-01-28T01:24:15.796Z,100960.38
2019-01-28T01:26:43.217Z,100954.84
2019-01-28T01:29:09.113Z,100952.89
2019-01-28T01:31:35.037Z,100947.81
2019-01-28T01:34:01.081Z,100949.25
2019-01-28T01:36:27.324Z,100958.94
2019-01-28T01:38:53.256Z,100955.42
2019-01-28T01:41:19.280Z,100957.38
2019-01-28T01:43:45.390Z,100953.10
2019-01-28T01:46:11.421Z,100961.08
2019-01-28T01:48:37.416Z,100959.23
2019-01-28T01:51:03.488Z,100962.50
2019-01-28T01:53:31.513Z,100958.09
2019-01-28T01:55:57.455Z,100962.20
2019-01-28T01:58:23.338Z,100966.96
2019-01-28T02:00:49.362Z,100960.80
2019-01-28T02:03:15.408Z,100963.23
2019-01-28T02:05:41.316Z,100956.22
2019-01-28T02:08:07.450Z,100952.14
2019-01-28T02:10:33.676Z,100953.61
2019-01-28T02:12:59.572Z,100956.73
2019-01-28T02:15:25.618Z,100961.69
2019-01-28T02:17:51.536Z,100959.27
2019-01-28T02:20:17.672Z,100959.44
2019-01-28T02:22:45.568Z,100958.07
2019-01-28T02:25:13.110Z,100898.64
2019-01-28T02:27:39.314Z,100962.66
2019-01-28T02:30:09.043Z,100959.71
2019-01-28T02:32:35.145Z,100964.12
2019-01-28T02:35:01.272Z,100956.91
2019-01-28T02:37:27.349Z,100953.17
2019-01-28T02:39:53.232Z,100949.28
2019-01-28T02:42:19.378Z,100952.09
2019-01-28T02:44:45.269Z,100946.92
2019-01-28T02:47:11.204Z,100950.41
2019-01-28T02:49:37.309Z,100945.45
2019-01-28T02:52:03.460Z,100942.72
2019-01-28T02:54:29.470Z,100944.94
2019-01-28T02:56:55.475Z,100947.47
2019-01-28T02:59:22.707Z,100937.97
2019-01-28T03:01:48.607Z,100937.75
2019-01-28T03:04:14.628Z,100935.33
2019-01-28T03:06:40.913Z,100935.84
2019-01-28T03:09:07.106Z,100937.55
2019-01-28T03:11:33.253Z,100933.24
2019-01-28T03:13:59.268Z,100930.41
2019-01-28T03:16:25.202Z,100938.10
2019-01-28T03:18:51.407Z,100926.23
2019-01-28T03:21:17.556Z,100920.90
2019-01-28T03:23:44.855Z,100922.75
2019-01-28T03:26:10.764Z,100914.87
2019-01-28T03:28:36.796Z,100913.20
2019-01-28T03:31:02.923Z,100910.56
2019-01-28T03:33:28.855Z,100916.31
2019-01-28T03:35:54.855Z,100917.17
2019-01-28T03:38:21.172Z,100917.23
2019-01-28T03:40:47.211Z,100911.59
2019-01-28T03:43:13.138Z,100918.87
2019-01-28T03:45:39.066Z,100919.13
2019-01-28T03:48:05.078Z,100918.91
2019-01-28T03:50:31.157Z,100920.01
2019-01-28T03:52:57.363Z,100923.63
2019-01-28T03:55:23.260Z,100916.52
2019-01-28T03:57:49.379Z,100847.22
2019-01-28T04:00:17.500Z,100914.09
2019-01-28T04:02:43.609Z,100914.47
2019-01-28T04:05:10.458Z,100915.42
2019-01-28T04:07:36.499Z,100900.03
2019-01-28T04:10:06.089Z,100898.88
2019-01-28T04:12:31.995Z,100900.34
2019-01-28T04:14:58.003Z,100902.39
2019-01-28T04:17:23.922Z,100905.41
2019-01-28T04:19:49.845Z,100908.00
2019-01-28T04:22:15.885Z,100897.95
2019-01-28T04:24:41.800Z,100900.86
2019-01-28T04:27:07.712Z,100896.21
2019-01-28T04:29:33.677Z,100904.55
2019-01-28T04:31:59.572Z,100906.16
2019-01-28T04:34:25.497Z,100902.74
2019-01-28T04:36:51.411Z,100898.84
2019-01-28T04:39:17.726Z,100909.55
2019-01-28T04:41:43.732Z,100910.23
2019-01-28T04:44:09.652Z,100907.02
2019-01-28T04:46:35.689Z,100905.34
2019-01-28T04:49:01.696Z,100908.76
2019-01-28T04:51:27.663Z,100910.44
2019-01-28T04:53:53.566Z,100912.28
2019-01-28T04:56:19.676Z,100865.75
2019-01-28T04:58:47.537Z,100906.47
2019-01-28T05:01:13.437Z,100901.23
2019-01-28T05:03:39.426Z,100901.44
2019-01-28T05:06:05.541Z,100901.27
2019-01-28T05:08:31.467Z,100899.41
2019-01-28T05:10:57.483Z,100895.44
2019-01-28T05:13:23.524Z,100895.33
2019-01-28T05:15:49.422Z,100895.66
2019-01-28T05:18:15.328Z,100882.80
2019-01-28T05:20:42.897Z,100879.80
2019-01-28T05:23:08.913Z,100879.11
2019-01-28T05:25:35.114Z,100873.45
2019-01-28T05:28:01.119Z,100869.48
2019-01-28T05:30:27.131Z,100866.77
2019-01-28T05:32:53.282Z,100866.55
2019-01-28T05:35:20.886Z,100872.22
2019-01-28T05:37:46.993Z,100866.56
2019-01-28T05:40:15.675Z,100872.33
2019-01-28T05:42:41.689Z,100872.87
2019-01-28T05:45:11.277Z,100872.59
2019-01-28T05:47:37.224Z,100866.73
2019-01-28T05:50:06.028Z,100864.96
2019-01-28T05:52:32.044Z,100820.20
2019-01-28T05:54:57.951Z,100861.84
2019-01-28T05:57:23.857Z,100860.89
2019-01-28T05:59:49.829Z,100860.01
2019-01-28T06:02:15.749Z,100866.72
2019-01-28T06:04:41.733Z,100863.59
2019-01-28T06:07:07.858Z,100866.12
2019-01-28T06:09:33.978Z,100866.88
2019-01-28T06:11:59.902Z,100865.52
2019-01-28T06:14:25.801Z,100873.97
2019-01-28T06:16:51.756Z,100873.49
2019-01-28T06:19:17.661Z,100873.27
2019-01-28T06:21:43.670Z,100872.08
2019-01-28T06:24:09.600Z,100869.50
2019-01-28T06:26:35.537Z,100875.03
2019-01-28T06:29:01.451Z,100870.61
2019-01-28T06:31:27.491Z,100875.67
2019-01-28T06:33:53.598Z,100876.52
2019-01-28T06:36:19.516Z,100881.66
2019-01-28T06:38:45.558Z,100888.37
2019-01-28T06:41:12.171Z,100881.03
2019-01-28T06:43:38.089Z,100883.92
2019-01-28T06:46:04.027Z,100880.09
2019-01-28T06:48:31.191Z,100873.72
2019-01-28T06:50:57.184Z,100881.70
2019-01-28T06:53:23.194Z,100880.87
2019-01-28T06:55:49.217Z,100878.77
2019-01-28T06:58:15.307Z,100878.61
2019-01-28T07:00:41.349Z,100883.25
2019-01-28T07:03:07.496Z,100871.52
2019-01-28T07:05:33.645Z,100876.02
2019-01-28T07:07:59.546Z,100878.10
2019-01-28T07:10:25.554Z,100868.36
2019-01-28T07:12:51.810Z,100868.31
2019-01-28T07:15:19.827Z,100867.39
2019-01-28T07:17:45.965Z,100861.87
2019-01-28T07:20:15.455Z,100860.93
2019-01-28T07:22:41.639Z,100864.74
2019-01-28T07:25:07.778Z,100866.55
2019-01-28T07:27:33.950Z,100860.44
2019-01-28T07:29:59.941Z,100863.39
2019-01-28T07:32:25.964Z,100867.16
2019-01-28T07:34:52.004Z,100862.90
2019-01-28T07:37:17.911Z,100864.58
2019-01-28T07:39:43.840Z,100861.88
2019-01-28T07:42:10.035Z,100867.77
2019-01-28T07:44:35.955Z,100871.09
2019-01-28T07:47:01.960Z,100865.55
2019-01-28T07:49:27.934Z,100862.43
2019-01-28T07:51:54.053Z,100856.61
2019-01-28T07:54:20.082Z,100856.61
2019-01-28T07:56:46.052Z,100866.88
2019-01-28T07:59:11.941Z,100864.18
2019-01-28T08:01:38.046Z,100856.84
2019-01-28T08:04:04.291Z,100863.52
2019-01-28T08:06:30.411Z,100854.52
2019-01-28T08:08:56.442Z,100855.56
2019-01-28T08:11:22.564Z,100851.27
2019-01-28T08:13:48.592Z,100853.23
2019-01-28T08:16:14.631Z,100853.95
2019-01-28T08:18:40.537Z,100849.55
2019-01-28T08:21:06.493Z,100855.90
2019-01-28T08:23:32.490Z,100851.17
2019-01-28T08:25:58.515Z,100849.80
2019-01-28T08:28:24.433Z,100846.33
2019-01-28T08:30:50.692Z,100844.92
2019-01-28T08:33:16.794Z,100845.95
2019-01-28T08:35:42.907Z,100849.19
2019-01-28T08:38:09.029Z,100841.84
2019-01-28T08:40:35.175Z,100844.61
2019-01-28T08:43:01.385Z,100844.89
2019-01-28T08:45:27.503Z,100839.58
2019-01-28T08:47:53.553Z,100839.78
2019-01-28T08:50:21.876Z,100846.06
2019-01-28T08:52:48.018Z,100835.59
2019-01-28T08:55:16.532Z,100841.83
2019-01-28T08:57:42.753Z,100842.03
2019-01-28T09:00:23.437Z,100841.42
2019-01-28T09:02:49.550Z,100842.52
2019-01-28T09:05:16.781Z,100833.42
2019-01-28T09:07:43.061Z,100837.06
2019-01-28T09:10:12.472Z,100831.30
2019-01-28T09:12:38.601Z,100839.17
2019-01-28T09:15:08.324Z,100832.56
2019-01-28T09:17:34.534Z,100833.25
2019-01-28T09:20:00.662Z,100833.45
2019-01-28T09:22:26.595Z,100828.53
2019-01-28T09:24:52.510Z,100822.34
2019-01-28T09:27:18.545Z,100822.53
2019-01-28T09:29:46.035Z,100825.28
2019-01-28T09:32:12.065Z,100819.97
2019-01-28T09:34:38.082Z,100818.52
2019-01-28T09:37:04.223Z,100816.59
2019-01-28T09:39:31.515Z,100827.53
2019-01-28T09:41:57.682Z,100821.81
2019-01-28T09:44:23.885Z,100816.45
2019-01-28T09:46:50.017Z,100805.19
2019-01-28T09:49:15.912Z,100820.70
2019-01-28T09:51:41.960Z,100811.98
2019-01-28T09:54:08.159Z,100813.06
2019-01-28T09:56:34.100Z,100808.61
2019-01-28T09:59:00.246Z,100812.20
2019-01-28T10:01:26.151Z,100802.15
2019-01-28T10:03:52.247Z,100806.23
2019-01-28T10:06:18.172Z,100806.02
2019-01-28T10:08:44.074Z,100805.40
2019-01-28T10:11:09.999Z,100806.42
2019-01-28T10:13:36.125Z,100807.09
2019-01-28T10:16:02.227Z,100804.28
2019-01-28T10:18:28.157Z,100805.39
2019-01-28T10:20:54.170Z,100810.69
2019-01-28T10:23:20.357Z,100799.83
2019-01-28T10:25:46.558Z,100802.56
2019-01-28T10:28:12.761Z,100798.06
2019-01-28T10:30:40.889Z,100791.82
2019-01-28T10:33:07.505Z,100789.88
2019-01-28T10:35:34.151Z,100798.56
2019-01-28T10:38:00.282Z,100786.86
2019-01-28T10:40:31.380Z,100784.45
2019-01-28T10:42:57.510Z,100784.23
2019-01-28T10:45:23.876Z,100785.23
2019-01-28T10:47:50.014Z,100784.52
2019-01-28T10:50:19.042Z,100787.30
2019-01-28T10:52:45.182Z,100780.16
2019-01-28T10:55:13.396Z,100782.14
2019-01-28T10:57:39.344Z,100775.89
2019-01-28T11:00:11.632Z,100776.45
2019-01-28T11:02:37.166Z,100774.04
2019-01-28T11:05:05.018Z,100774.25
2019-01-28T11:07:31.013Z,100767.98
2019-01-28T11:09:57.323Z,100766.06
2019-01-28T11:12:23.334Z,100765.78
2019-01-28T11:14:49.398Z,100758.72
2019-01-28T11:17:15.671Z,100760.59
2019-01-28T11:19:41.882Z,100759.02
2019-01-28T11:22:08.065Z,100756.64
2019-01-28T11:24:34.518Z,100755.51
2019-01-28T11:27:00.704Z,100744.98
2019-01-28T11:29:26.883Z,100751.16
2019-01-28T11:31:53.105Z,100744.44
2019-01-28T11:34:19.142Z,100741.61
2019-01-28T11:36:45.392Z,100740.52
2019-01-28T11:39:11.638Z,100732.95
2019-01-28T11:41:37.980Z,100728.00
2019-01-28T11:44:04.326Z,100725.97
2019-01-28T11:46:30.669Z,100726.11
2019-01-28T11:48:56.528Z,100718.14
2019-01-28T11:51:22.692Z,100713.53
2019-01-28T11:53:48.708Z,100716.20
2019-01-28T11:56:14.812Z,100707.73
2019-01-28T11:58:40.825Z,100708.31
2019-01-28T12:01:09.167Z,100703.27
2019-01-28T12:03:35.070Z,100701.26
2019-01-28T12:06:01.235Z,100700.91
2019-01-28T12:08:27.351Z,100693.76
2019-01-28T12:10:53.457Z,100690.44
2019-01-28T12:13:19.495Z,100689.28
2019-01-28T12:15:45.613Z,100684.22
2019-01-28T12:18:11.737Z,100681.33
2019-01-28T12:20:37.644Z,100677.55
2019-01-28T12:23:04.013Z,100675.11
2019-01-28T12:25:30.113Z,100667.43
2019-01-28T12:27:56.127Z,100662.77
2019-01-28T12:30:25.577Z,100607.56
2019-01-28T12:32:51.904Z,100658.59
2019-01-28T12:35:18.008Z,100655.70
2019-01-28T12:37:44.081Z,100658.75
2019-01-28T12:40:14.805Z,100653.61
2019-01-28T12:42:40.965Z,100657.95
2019-01-28T12:45:15.970Z,100654.61
2019-01-28T12:47:42.206Z,100651.59
2019-01-28T12:50:11.529Z,100655.97
2019-01-28T12:52:37.669Z,100646.09
2019-01-28T12:55:07.386Z,100643.07
2019-01-28T12:57:33.391Z,100645.68
2019-01-28T12:59:59.415Z,100647.86
2019-01-28T13:02:25.531Z,100645.36
2019-01-28T13:04:51.563Z,100637.16
2019-01-28T13:07:17.554Z,100635.47
2019-01-28T13:09:43.490Z,100635.47
2019-01-28T13:12:09.489Z,100627.79
2019-01-28T13:14:35.412Z,100631.13
2019-01-28T13:17:02.828Z,100631.13
2019-01-28T13:19:30.216Z,100628.16
2019-01-28T13:21:56.477Z,100623.02
2019-01-28T13:24:22.526Z,100625.14
2019-01-28T13:26:48.560Z,100626.42
2019-01-28T13:29:14.552Z,100632.48
2019-01-28T13:31:40.625Z,100634.14
2019-01-28T13:34:06.810Z,100628.88
2019-01-28T13:36:32.810Z,100634.99
2019-01-28T13:38:58.724Z,100641.02
2019-01-28T13:41:24.644Z,100641.02
2019-01-28T13:43:50.743Z,100643.23
2019-01-28T13:46:16.771Z,100642.86
2019-01-28T13:48:42.950Z,100637.75
2019-01-28T13:51:09.605Z,100634.78
2019-01-28T13:53:35.751Z,100627.09
2019-01-28T13:56:01.867Z,100625.81
2019-01-28T13:58:27.890Z,100628.38
2019-01-28T14:00:54.101Z,100626.33
2019-01-28T14:03:20.209Z,100627.17
2019-01-28T14:05:46.335Z,100617.77
2019-01-28T14:08:12.448Z,100623.31
2019-01-28T14:10:38.502Z,100610.48
2019-01-28T14:13:04.486Z,100606.63
2019-01-28T14:15:33.518Z,100598.09
2019-01-28T14:17:59.553Z,100599.34
2019-01-28T14:20:27.575Z,100591.62
2019-01-28T14:22:53.779Z,100589.91
2019-01-28T14:25:19.927Z,100587.80
2019-01-28T14:27:49.784Z,100575.82
2019-01-28T14:30:33.949Z,100575.82
2019-01-28T14:32:59.981Z,100570.67
2019-01-28T14:35:26.080Z,100571.16
2019-01-28T14:37:52.097Z,100575.42
2019-01-28T14:40:20.666Z,100564.24
2019-01-28T14:42:46.814Z,100555.23
2019-01-28T14:45:13.415Z,100553.55
2019-01-28T14:47:39.560Z,100553.14
2019-01-28T14:50:09.585Z,100564.72
2019-01-28T14:52:35.776Z,100557.81
2019-01-28T14:55:01.796Z,100546.23
2019-01-28T14:57:27.906Z,100543.25
2019-01-28T14:59:53.816Z,100538.11
2019-01-28T15:02:20.321Z,100537.66
2019-01-28T15:04:46.381Z,100535.94
2019-01-28T15:07:12.583Z,100528.66
2019-01-28T15:09:38.731Z,100526.90
2019-01-28T15:12:04.872Z,100532.05
2019-01-28T15:14:30.895Z,100526.05
2019-01-28T15:16:56.787Z,100516.64
2019-01-28T15:19:22.816Z,100507.23
2019-01-28T15:21:48.994Z,100508.95
2019-01-28T15:24:15.006Z,100503.81
2019-01-28T15:26:41.075Z,100500.83
2019-01-28T15:29:07.378Z,100497.84
2019-01-28T15:31:33.311Z,100495.28
2019-01-28T15:33:59.480Z,100499.58
2019-01-28T15:36:25.599Z,100502.63
2019-01-28T15:38:51.729Z,100504.83
2019-01-28T15:41:17.816Z,100443.14
2019-01-28T15:43:43.957Z,100492.43
2019-01-28T15:46:10.130Z,100490.77
2019-01-28T15:48:36.151Z,100491.34
2019-01-28T15:51:02.699Z,100485.78
2019-01-28T15:53:28.807Z,100493.14
2019-01-28T15:55:55.122Z,100475.15
2019-01-28T15:58:21.458Z,100481.62
2019-01-28T16:00:47.697Z,100473.89
2019-01-28T16:03:13.888Z,100470.94
2019-01-28T16:05:40.011Z,100466.64
2019-01-28T16:08:06.539Z,100468.81
2019-01-28T16:10:32.693Z,100460.68
2019-01-28T16:12:58.791Z,100466.67
2019-01-28T16:15:32.823Z,100456.84
2019-01-28T16:17:58.828Z,100454.27
2019-01-28T16:20:24.947Z,100395.36
2019-01-28T16:22:51.055Z,100446.17
2019-01-28T16:25:17.337Z,100435.47
2019-01-28T16:27:43.532Z,100432.92
2019-01-28T16:30:16.258Z,100432.89
2019-01-28T16:32:42.375Z,100428.18
2019-01-28T16:35:11.422Z,100418.38
2019-01-28T16:37:37.429Z,100416.69
2019-01-28T16:40:06.167Z,100413.77
2019-01-28T16:42:32.206Z,100417.69
2019-01-28T16:44:58.308Z,100413.03
2019-01-28T16:47:24.353Z,100412.63
2019-01-28T16:49:50.309Z,100409.66
2019-01-28T16:52:16.592Z,100408.00
2019-01-28T16:54:42.604Z,100404.16
2019-01-28T16:57:08.718Z,100399.05
2019-01-28T16:59:34.764Z,100402.46
2019-01-28T17:02:00.653Z,100392.63
2019-01-28T17:04:27.025Z,100387.53
2019-01-28T17:06:53.085Z,100384.11
2019-01-28T17:09:19.076Z,100388.88
2019-01-28T17:11:45.193Z,100382.49
2019-01-28T17:14:11.244Z,100370.41
2019-01-28T17:16:37.251Z,100373.94
2019-01-28T17:19:03.774Z,100368.84
2019-01-28T17:21:29.914Z,100368.86
2019-01-28T17:23:55.909Z,100365.92
2019-01-28T17:26:22.061Z,100368.97
2019-01-28T17:28:48.105Z,100361.70
2019-01-28T17:31:14.012Z,100355.29
2019-01-28T17:33:40.037Z,100358.33
2019-01-28T17:36:06.178Z,100347.16
2019-01-28T17:38:34.105Z,100345.49
2019-01-28T17:41:00.137Z,100341.67
2019-01-28T17:43:26.175Z,100339.13
2019-01-28T17:45:52.068Z,100333.14
2019-01-28T17:48:18.086Z,100328.01
2019-01-28T17:50:44.220Z,100326.75
2019-01-28T17:53:10.445Z,100328.96
2019-01-28T17:55:38.367Z,100321.69
2019-01-28T17:58:04.680Z,100320.44
2019-01-28T18:00:32.696Z,100317.48
2019-01-28T18:02:58.703Z,100318.37
2019-01-28T18:05:25.662Z,100319.30
2019-01-28T18:07:51.817Z,100313.29
2019-01-28T18:10:17.913Z,100311.64
2019-01-28T18:12:44.125Z,100310.78
2019-01-28T18:15:13.470Z,100307.37
2019-01-28T18:17:39.510Z,100248.03
2019-01-28T18:20:09.218Z,100300.53
2019-01-28T18:22:39.813Z,100295.81
2019-01-28T18:25:07.437Z,100295.83
2019-01-28T18:27:33.475Z,100288.11
2019-01-28T18:29:59.604Z,100279.11
2019-01-28T18:32:25.826Z,100279.16
2019-01-28T18:34:51.740Z,100269.72
2019-01-28T18:37:17.632Z,100273.21
2019-01-28T18:39:43.679Z,100279.70
2019-01-28T18:42:09.671Z,100278.02
2019-01-28T18:44:35.911Z,100265.07
2019-01-28T18:47:01.921Z,100265.07
2019-01-28T18:49:27.840Z,100265.19
2019-01-28T18:51:53.882Z,100263.47
2019-01-28T18:54:20.141Z,100263.95
2019-01-28T18:56:46.177Z,100269.56
2019-01-28T18:59:12.094Z,100270.02
2019-01-28T19:01:38.256Z,100267.47
2019-01-28T19:04:04.382Z,100272.23
2019-01-28T19:06:32.451Z,100264.52
2019-01-28T19:09:00.656Z,100262.38
2019-01-28T19:11:28.570Z,100266.73
2019-01-28T19:13:56.521Z,100259.84
2019-01-28T19:16:27.149Z,100262.05
2019-01-28T19:18:54.946Z,100259.50
2019-01-28T19:21:28.940Z,100256.52
2019-01-28T19:23:54.837Z,100256.95
2019-01-28T19:26:20.834Z,100251.83
2019-01-28T19:28:46.899Z,100249.27
2019-01-28T19:31:12.928Z,100247.98
2019-01-28T19:33:38.851Z,100243.30
2019-01-28T19:36:04.952Z,100246.73
2019-01-28T19:38:31.010Z,100242.45
2019-01-28T19:40:57.038Z,100237.72
2019-01-28T19:43:23.174Z,100229.98
2019-01-28T19:45:49.315Z,100225.72
2019-01-28T19:48:15.586Z,100220.98
2019-01-28T19:50:41.508Z,100219.30
2019-01-28T19:53:07.467Z,100211.58
2019-01-28T19:55:33.732Z,100211.17
2019-01-28T19:57:59.754Z,100160.53
2019-01-28T20:00:25.877Z,100206.87
2019-01-28T20:02:52.718Z,100206.48
2019-01-28T20:05:18.825Z,100200.92
2019-01-28T20:07:44.981Z,100200.93
2019-01-28T20:10:12.718Z,100200.95
2019-01-28T20:12:38.734Z,100196.67
2019-01-28T20:15:11.341Z,100193.24
2019-01-28T20:17:37.480Z,100199.30
2019-01-28T20:20:07.219Z,100194.14
2019-01-28T20:22:33.309Z,100195.86
2019-01-28T20:24:59.339Z,100186.84
2019-01-28T20:27:25.267Z,100193.73
2019-01-28T20:29:51.161Z,100192.45
2019-01-28T20:32:17.205Z,100188.59
2019-01-28T20:34:43.727Z,100194.23
2019-01-28T20:37:09.730Z,100197.25
2019-01-28T20:39:35.675Z,100195.98
2019-01-28T20:42:01.592Z,100191.25
2019-01-28T20:44:27.643Z,100197.72
2019-01-28T20:46:53.774Z,100199.87
2019-01-28T20:49:19.831Z,100196.89
2019-01-28T20:51:45.771Z,100196.02
2019-01-28T20:54:11.685Z,100202.05
2019-01-28T20:56:37.965Z,100204.20
2019-01-28T20:59:03.992Z,100203.80
2019-01-28T21:01:30.093Z,100193.47
2019-01-28T21:03:56.055Z,100192.66
2019-01-28T21:06:22.023Z,100204.30
2019-01-28T21:08:48.062Z,100202.15
2019-01-28T21:11:15.152Z,100205.17
2019-01-28T21:13:41.272Z,100203.86
2019-01-28T21:16:07.192Z,100196.56
2019-01-28T21:18:33.194Z,100203.04
2019-01-28T21:20:59.179Z,100199.59
2019-01-28T21:23:25.089Z,100197.02
2019-01-28T21:25:51.019Z,100187.53
2019-01-28T21:28:17.016Z,100190.58
2019-01-28T21:30:42.963Z,100196.65
2019-01-28T21:33:08.971Z,100189.73
2019-01-28T21:35:51.873Z,100191.50
2019-01-28T21:38:19.909Z,100191.50
2019-01-28T21:40:45.936Z,100190.64
2019-01-28T21:43:11.884Z,100191.07
2019-01-28T21:45:38.125Z,100191.54
2019-01-28T21:48:04.491Z,100191.97
2019-01-28T21:50:30.572Z,100186.81
2019-01-28T21:52:56.601Z,100191.58
2019-01-28T21:55:22.752Z,100191.58
2019-01-28T21:57:49.223Z,100189.88
2019-01-28T22:00:15.550Z,100189.91
2019-01-28T22:02:41.639Z,100186.03
2019-01-28T22:05:07.754Z,100186.03
2019-01-28T22:07:33.792Z,100187.75
2019-01-28T22:09:59.924Z,100190.77
2019-01-28T22:12:26.065Z,100179.58
2019-01-28T22:14:52.100Z,100183.02
2019-01-28T22:17:18.220Z,100183.02
2019-01-28T22:19:44.254Z,100173.55
2019-01-28T22:22:10.186Z,100173.98
2019-01-28T22:24:36.302Z,100175.27
2019-01-28T22:27:03.057Z,100166.69
2019-01-28T22:29:29.107Z,100159.33
2019-01-28T22:31:55.006Z,100160.20
2019-01-28T22:34:21.009Z,100160.20
2019-01-28T22:36:46.941Z,100169.27
2019-01-28T22:39:12.987Z,100156.33
2019-01-28T22:41:40.849Z,100161.06
2019-01-28T22:44:06.918Z,100161.06
2019-01-28T22:46:32.829Z,100162.35
2019-01-28T22:48:58.890Z,100161.06
2019-01-28T22:51:24.898Z,100164.50
2019-01-28T22:53:50.829Z,100164.50
2019-01-28T22:56:16.860Z,100164.92
2019-01-28T22:58:42.900Z,100162.79
2019-01-28T23:01:18.395Z,100162.80
2019-01-28T23:03:44.542Z,100163.66
2019-01-28T23:06:10.653Z,100163.66
2019-01-28T23:08:36.684Z,100164.95
2019-01-28T23:11:03.008Z,100160.23
2019-01-28T23:13:28.951Z,100159.34
2019-01-28T23:15:54.833Z,100162.34
2019-01-28T23:18:20.766Z,100156.75
2019-01-28T23:20:46.782Z,100157.16
2019-01-28T23:23:12.910Z,100153.72
2019-01-28T23:25:38.910Z,100153.72
2019-01-28T23:28:05.138Z,100148.54
2019-01-28T23:30:31.176Z,100141.60
2019-01-28T23:32:57.309Z,100146.78
2019-01-28T23:35:23.458Z,100143.77
2019-01-28T23:37:49.482Z,100143.77
2019-01-28T23:40:15.592Z,100145.06
2019-01-28T23:42:42.282Z,100141.19
2019-01-28T23:45:10.814Z,100141.19
2019-01-28T23:47:36.749Z,100136.89
2019-01-28T23:50:06.085Z,100136.89
2019-01-28T23:52:32.104Z,100146.36
2019-01-28T23:54:58.087Z,100133.41
2019-01-28T23:57:24.219Z,100141.59
2019-01-28T23:59:50.503Z,100141.59
